YPPHRJAA

Guest
Details From YPPH - Perth
To RJAA - Narita Intl
Flight Number -
Tags Generated
Created
Modified
Stats Distance 4,296 nm / 7,956 km
Max Altitude 0 ft / 0 m
Waypoints 5
Social Downloads 1
Likes 0
Share VATSIM

Download

Looking for another format? Having issues loading an existing format? Contact us
Advertisement - Login to hide

Notes

Generated

Route

YPPH MOGSH OXBLU NRE RJAA

ID Type Via Altitude Latitude Longitude Leg Dist Tot Dist Heading (true) Name
O YPPH APT - 0 ft / 0 m -31.95862˚ 115.95972˚ - 0 nm - -
MOGSH FIX - 0 ft / 0 m -28.08750˚ 117.82610˚ 251 nm 251 nm 23° / 22° -
OXBLU FIX - 0 ft / 0 m -25.03833˚ 119.16583˚ 196 nm 448 nm 22° / 21° -
NRE VOR - 0 ft / 0 m 35.78235˚ 140.36254˚ 3845 nm 4294 nm 19° / 21° NARITA VOR-DME
O RJAA APT - 0 ft / 0 m 35.80271˚ 140.37991˚ 1 nm 4295 nm 35° / 35° -

Altitude Profile

Advertisement - Login to hide

Weather


0- 5 10 15 20 25 30 35+ Temperature / ° C

Clouds and Precipitation
Forecast for 2017-12-12 18:00 UTC. Updated 17 minutes ago

Ground ~20,000 ft ~40,000 ft Winds

YPPH

Details ICAO YPPH (PER)
Name Perth
Region Australia
Timezone Australia/Perth (UTC+8.0)
Stats Elevation 70 ft / 21 m (AMSL)
Location -31.939673° 115.966614°
Runways 2
Magnetic Variation 1.670° W

METAR

YPPH 121700Z 18013KT CAVOK 18/11 Q1015 NOSIG

Decode

TAF

TAF YPPH 121055Z 1212/1318 23020KT CAVOK FM121400 20012KT 9999 SCT017 FM122000 17010KT CAVOK FM130500 22018KT CAVOK

Decode

Departure Runways

ID Width Length Bearing (true) Bearing (mag) Surface Threshold Offset Overrun Length
03 151 ft / 46 m 11,390 ft / 3,472 m 13.89° 15.56° Asphalt 0 ft / 0 m 0 ft / 0 m
06 151 ft / 46 m 7,096 ft / 2,163 m 58.78° 60.45° Asphalt 0 ft / 0 m 0 ft / 0 m
21 151 ft / 46 m 11,390 ft / 3,472 m 193.88° 195.55° Asphalt 0 ft / 0 m 0 ft / 0 m
24 151 ft / 46 m 7,096 ft / 2,163 m 238.77° 240.44° Asphalt 0 ft / 0 m 0 ft / 0 m

RJAA

Details ICAO RJAA (NRT)
Name NARITA INTL
Region Japan
Timezone Asia/Tokyo (UTC+9.0)
Stats Elevation 141 ft / 43 m (AMSL)
Location 35.776552° 140.382770°
Runways 2
Magnetic Variation 7.405° W

METAR

RJAA 121700Z 33005KT 9999 FEW030 M01/M07 Q1013 NOSIG RMK 1CU030 A2991

Decode

TAF

TAF RJAA 121105Z 1212/1318 32006KT 9999 FEW030= TAF RJBB 121105Z 1212/1318 30020KT 9999 FEW020 BKN050 TEMPO 1303/1306 30023G33KT BECMG 1312/1315 34015KT

Decode

Destination Runways

ID Width Length Bearing (true) Bearing (mag) Surface Threshold Offset Overrun Length
16L 196 ft / 60 m 7,162 ft / 2,183 m 149.61° 157.02° Asphalt 190 ft / 58 m 0 ft / 0 m
16R 196 ft / 60 m 13,142 ft / 4,006 m 149.61° 157.02° Asphalt 0 ft / 0 m 410 ft / 125 m
34L 196 ft / 60 m 13,142 ft / 4,006 m 329.62° 337.03° Asphalt 0 ft / 0 m 415 ft / 126 m
34R 196 ft / 60 m 7,162 ft / 2,183 m 329.62° 337.03° Asphalt 190 ft / 58 m 0 ft / 0 m

Approach Navaids

Runway Type Ident Frequency Range Bearing (true) Bearing (mag) Slope Elevation
16L Localiser ITM 110.70 MHz 18 nm / 33 km 149.62° 157.02° - 141 ft / 43 m (AMSL)
16L Glidescope ITM 110.70 MHz 10 nm / 19 km 149.62° 157.02° 3.00° 141 ft / 43 m (AMSL)
16L DME ITM 110.70 MHz 18 nm / 33 km - - - 145 ft / 44 m (AMSL)
16R Localiser IKF 111.50 MHz 18 nm / 33 km 149.63° 157.03° - 141 ft / 43 m (AMSL)
16R Glidescope IKF 111.50 MHz 10 nm / 19 km 149.62° 157.02° 3.00° 141 ft / 43 m (AMSL)
16R DME IKF 111.50 MHz 18 nm / 33 km - - - 145 ft / 44 m (AMSL)
34L Localiser IYQ 111.90 MHz 18 nm / 33 km 329.61° 337.01° - 141 ft / 43 m (AMSL)
34L Glidescope IYQ 111.90 MHz 10 nm / 19 km 329.62° 337.02° 3.00° 141 ft / 43 m (AMSL)
34L DME IYQ 111.90 MHz 18 nm / 33 km - - - 153 ft / 47 m (AMSL)
34R Localiser ITJ 110.90 MHz 18 nm / 33 km 329.62° 337.02° - 141 ft / 43 m (AMSL)
34R Glidescope ITJ 110.90 MHz 10 nm / 19 km 329.62° 337.02° 3.00° 141 ft / 43 m (AMSL)
34R DME ITJ 110.90 MHz 18 nm / 33 km - - - 148 ft / 45 m (AMSL)

Popular Alternatives